Time;durP1;ratioP1;P1;durP2;ratioP2;P2;SDS_P1;SDS_P2;PMS_P1;PMS_P2;Temp;Humidity;BMP_temperature;BMP_pressure;BME280_temperature;BME280_humidity;BME280_pressure;Samples;Min_cycle;Max_cycle;Signal;HPM_P1;HPM_P2
2021/05/14 04:40:19;;;;;;;3.22;2.05;;;;;;;13.62;100.00;100539.97;1868577;76;21373;-81
2021/05/14 04:42:46;;;;;;;2.50;2.05;;;;;;;13.72;100.00;100544.80;1868679;76;20855;-75
2021/05/14 04:45:14;;;;;;;3.10;2.80;;;;;;;13.82;100.00;100536.55;1868548;76;21001;-73
2021/05/14 04:47:41;;;;;;;3.00;2.70;;;;;;;13.87;100.00;100538.80;1868500;76;20942;-73
2021/05/14 04:50:12;;;;;;;4.20;3.70;;;;;;;13.90;100.00;100536.77;1868460;76;21650;-75
2021/05/14 04:52:39;;;;;;;6.05;4.20;;;;;;;13.92;100.00;100547.90;1868304;76;21005;-75
2021/05/14 04:55:08;;;;;;;4.58;4.12;;;;;;;13.94;100.00;100547.78;1868249;76;20906;-75
2021/05/14 04:57:35;;;;;;;6.33;4.15;;;;;;;13.97;100.00;100547.06;1868494;76;20951;-77
2021/05/14 05:00:02;;;;;;;7.12;3.83;;;;;;;14.02;100.00;100545.36;1868417;76;20945;-78
2021/05/14 05:02:29;;;;;;;4.70;3.98;;;;;;;14.06;100.00;100544.16;1868518;76;21065;-73
2021/05/14 05:04:56;;;;;;;5.83;4.15;;;;;;;14.09;100.00;100543.91;1841705;76;21734;-76
2021/05/14 05:07:23;;;;;;;5.03;4.35;;;;;;;14.15;100.00;100542.09;1856808;76;20968;-85
2021/05/14 05:09:52;;;;;;;8.25;4.50;;;;;;;14.20;100.00;100539.92;1852316;76;20993;-72
2021/05/14 05:12:33;;;;;;;5.37;4.33;;;;;;;14.25;100.00;100536.47;1851967;76;20944;-75
2021/05/14 05:15:00;;;;;;;7.72;5.55;;;;;;;14.32;100.00;100529.80;1861535;76;21070;-80
2021/05/14 05:17:29;;;;;;;9.70;4.58;;;;;;;14.34;100.00;100526.59;1860587;76;20954;-75
2021/05/14 05:19:56;;;;;;;5.92;4.42;;;;;;;14.38;100.00;100531.92;1842360;76;21598;-77
2021/05/14 05:22:23;;;;;;;5.55;4.78;;;;;;;14.43;100.00;100534.95;1858079;76;21025;-83
2021/05/14 05:24:50;;;;;;;6.50;5.45;;;;;;;14.45;100.00;100538.77;1847639;76;20982;-76
2021/05/14 05:27:17;;;;;;;5.55;4.25;;;;;;;14.51;100.00;100533.85;1860734;76;21660;-72
2021/05/14 05:29:44;;;;;;;4.87;3.65;;;;;;;14.62;100.00;100533.75;1853134;76;20925;-81
2021/05/14 05:32:11;;;;;;;3.80;3.30;;;;;;;14.71;100.00;100534.28;1858158;76;20846;-79
2021/05/14 05:34:38;;;;;;;5.35;3.95;;;;;;;14.78;99.90;100528.05;1853602;76;21561;-81
2021/05/14 05:37:06;;;;;;;4.58;3.40;;;;;;;14.87;99.42;100536.91;1858757;76;20875;-76
2021/05/14 05:39:33;;;;;;;4.10;3.20;;;;;;;14.97;98.62;100539.05;1861347;76;21027;-76
2021/05/14 05:42:00;;;;;;;3.33;2.80;;;;;;;15.06;95.76;100541.70;1860799;76;20993;-75
2021/05/14 05:44:28;;;;;;;3.70;2.90;;;;;;;15.16;93.86;100534.72;1853541;76;21044;-73
2021/05/14 05:46:54;;;;;;;4.47;2.70;;;;;;;15.27;88.22;100538.55;1849304;76;20993;-73
2021/05/14 05:49:21;;;;;;;6.83;2.90;;;;;;;15.33;87.45;100535.39;1861385;76;20934;-74
2021/05/14 05:51:49;;;;;;;3.17;2.50;;;;;;;15.34;86.52;100537.06;1855972;75;21208;-86
2021/05/14 05:54:16;;;;;;;2.50;2.22;;;;;;;15.38;87.15;100541.51;1854954;76;20980;-74
2021/05/14 05:56:45;;;;;;;3.27;2.72;;;;;;;15.43;87.14;100548.96;1862807;76;21602;-76
2021/05/14 05:59:16;;;;;;;3.80;2.60;;;;;;;15.50;87.37;100546.19;1862435;76;20950;-78
2021/05/14 06:01:42;;;;;;;3.85;2.12;;;;;;;15.57;88.43;100548.11;1861353;76;20895;-76
2021/05/14 06:04:09;;;;;;;5.50;3.00;;;;;;;15.64;88.05;100547.09;1853020;76;21025;-86
2021/05/14 06:06:36;;;;;;;3.98;2.55;;;;;;;15.70;86.15;100551.30;1859229;75;21069;-75
2021/05/14 06:09:04;;;;;;;2.87;1.98;;;;;;;15.74;85.62;100551.38;1856157;76;20974;-76
2021/05/14 06:11:31;;;;;;;2.35;2.02;;;;;;;15.82;84.40;100552.02;1851689;76;21021;-73
2021/05/14 06:13:58;;;;;;;2.72;2.22;;;;;;;15.87;82.65;100554.55;1849367;76;20998;-75
2021/05/14 06:16:26;;;;;;;2.42;1.95;;;;;;;15.92;81.94;100559.39;1859074;76;21049;-73
2021/05/14 06:19:03;;;;;;;3.02;2.27;;;;;;;15.94;82.27;100552.21;1864106;76;20913;-72
2021/05/14 06:21:25;;;;;;;2.40;2.20;;;;;;;15.94;79.59;100550.08;1780529;80;20918;-74
2021/05/14 06:23:52;;;;;;;3.22;2.05;;;;;;;15.95;81.06;100558.28;1789396;79;20939;-74
2021/05/14 06:26:19;;;;;;;2.35;1.95;;;;;;;16.03;79.36;100561.85;1780784;79;21084;-75
2021/05/14 06:28:47;;;;;;;2.00;1.77;;;;;;;16.06;80.12;100555.03;1777605;79;21490;-81
2021/05/14 06:31:14;;;;;;;2.47;2.02;;;;;;;16.11;80.21;100545.47;1774710;79;21634;-77
2021/05/14 06:33:41;;;;;;;2.85;1.90;;;;;;;16.20;80.10;100548.55;1782577;79;20907;-76
2021/05/14 06:36:08;;;;;;;2.17;1.75;;;;;;;16.32;78.13;100546.11;1786277;79;21038;-78
2021/05/14 06:38:35;;;;;;;2.95;1.75;;;;;;;16.43;78.68;100549.39;1830386;77;20922;-72
2021/05/14 06:41:04;;;;;;;1.40;1.30;;;;;;;16.52;76.43;100548.21;1821772;76;21097;-73
2021/05/14 06:43:31;;;;;;;3.55;1.60;;;;;;;16.58;74.04;100546.36;1797570;78;21627;-75
2021/05/14 06:46:01;;;;;;;4.78;1.77;;;;;;;16.62;72.90;100552.98;1797465;78;21553;-78
2021/05/14 06:48:27;;;;;;;4.75;1.70;;;;;;;16.63;73.98;100547.58;1817100;78;20972;-71
2021/05/14 06:50:55;;;;;;;2.58;1.70;;;;;;;16.67;74.12;100551.58;1823179;77;21015;-81
2021/05/14 06:53:22;;;;;;;2.22;1.42;;;;;;;16.70;74.12;100558.31;1819627;78;21080;-80
2021/05/14 06:55:49;;;;;;;4.62;1.85;;;;;;;16.74;74.46;100561.83;1824090;77;21105;-82
2021/05/14 06:58:17;;;;;;;3.08;1.67;;;;;;;16.79;75.19;100560.91;1799545;78;21023;-74
2021/05/14 07:00:44;;;;;;;4.20;1.77;;;;;;;16.87;75.90;100557.09;1815798;76;20920;-81
2021/05/14 07:03:14;;;;;;;2.75;1.57;;;;;;;16.94;74.75;100558.66;1829817;76;20914;-83
2021/05/14 07:05:45;;;;;;;2.92;1.70;;;;;;;16.98;74.21;100552.61;1842596;76;21442;-85
2021/05/14 07:08:13;;;;;;;3.05;1.47;;;;;;;17.03;73.06;100555.65;1775024;79;20889;-74
2021/05/14 07:10:40;;;;;;;3.67;1.75;;;;;;;17.12;73.51;100554.77;1842766;76;21065;-76
2021/05/14 07:13:07;;;;;;;2.02;1.62;;;;;;;17.23;72.81;100559.84;1837240;76;20997;-76
2021/05/14 07:15:35;;;;;;;3.12;1.70;;;;;;;17.31;72.16;100565.99;1812990;78;21073;-79
2021/05/14 07:18:03;;;;;;;4.87;1.62;;;;;;;17.40;71.20;100565.11;1805171;78;21126;-75
2021/05/14 07:20:33;;;;;;;1.75;1.50;;;;;;;17.48;68.69;100567.48;1817971;77;21043;-79
2021/05/14 07:23:00;;;;;;;2.20;1.47;;;;;;;17.52;68.70;100566.23;1802971;78;20937;-81
2021/05/14 07:25:27;;;;;;;2.40;1.35;;;;;;;17.61;66.34;100567.51;1812278;78;21640;-80
2021/05/14 07:27:54;;;;;;;4.78;1.40;;;;;;;17.72;66.20;100571.21;1817341;78;21024;-80
2021/05/14 07:30:21;;;;;;;1.47;1.20;;;;;;;17.84;65.58;100565.24;1807183;78;21094;-83
2021/05/14 07:32:49;;;;;;;4.33;1.65;;;;;;;17.93;64.41;100569.63;1806147;78;21112;-76
2021/05/14 07:35:16;;;;;;;3.33;1.45;;;;;;;18.00;64.52;100563.28;1811694;78;21073;-78
2021/05/14 07:37:44;;;;;;;4.10;1.62;;;;;;;18.10;62.82;100566.63;1806056;78;21051;-78
2021/05/14 07:40:12;;;;;;;2.08;1.30;;;;;;;18.12;63.10;100569.45;1819066;78;21023;-81
2021/05/14 07:42:39;;;;;;;5.08;1.32;;;;;;;18.19;63.85;100563.08;1807271;78;21091;-78
2021/05/14 07:45:07;;;;;;;2.02;1.45;;;;;;;18.29;64.17;100569.91;1823558;78;20842;-75
2021/05/14 07:47:35;;;;;;;2.05;1.37;;;;;;;18.31;62.99;100569.28;1819834;78;21004;-80
2021/05/14 07:50:03;;;;;;;1.67;1.57;;;;;;;18.28;61.90;100562.98;1813550;78;21498;-77
2021/05/14 07:52:30;;;;;;;1.75;1.40;;;;;;;18.31;62.23;100564.03;1823851;78;21526;-79
2021/05/14 07:54:57;;;;;;;2.52;1.60;;;;;;;18.36;62.04;100559.61;1811290;78;21055;-72
2021/05/14 07:57:24;;;;;;;3.98;1.95;;;;;;;18.37;61.36;100563.41;1808913;78;21008;-80
2021/05/14 07:59:51;;;;;;;3.00;1.85;;;;;;;18.36;63.08;100568.80;1824826;78;21020;-78
2021/05/14 08:02:18;;;;;;;5.58;2.02;;;;;;;18.43;63.53;100565.91;1835256;76;21002;-74
2021/05/14 08:04:53;;;;;;;2.05;1.60;;;;;;;18.55;64.71;100574.38;1846521;76;21526;-77
2021/05/14 08:07:20;;;;;;;2.08;1.65;;;;;;;18.69;65.20;100582.55;1850073;76;21067;-83
2021/05/14 08:09:48;;;;;;;3.72;1.67;;;;;;;18.79;64.28;100578.49;1849709;77;20886;-84
2021/05/14 08:12:16;;;;;;;2.12;1.70;;;;;;;18.82;64.76;100583.44;1844243;76;21116;-82
2021/05/14 08:14:46;;;;;;;5.30;1.65;;;;;;;18.86;65.28;100588.21;1846101;77;20990;-79
2021/05/14 08:17:13;;;;;;;2.75;1.72;;;;;;;19.00;64.08;100586.81;1847740;77;20878;-75
2021/05/14 08:19:40;;;;;;;5.37;1.80;;;;;;;19.11;63.25;100587.03;1851437;77;21051;-75
2021/05/14 08:22:11;;;;;;;7.42;2.05;;;;;;;19.19;63.56;100591.83;1836274;77;20842;-77
2021/05/14 08:24:37;;;;;;;8.30;2.25;;;;;;;19.23;63.36;100591.03;1846637;76;20922;-78
2021/05/14 08:27:10;;;;;;;4.80;2.22;;;;;;;19.27;61.64;100594.48;1841547;77;20994;-85
2021/05/14 08:29:40;;;;;;;9.68;1.95;;;;;;;19.28;61.19;100593.51;1850743;76;21041;-75
2021/05/14 08:32:08;;;;;;;6.95;2.50;;;;;;;19.34;61.60;100591.55;1844379;77;21062;-73
2021/05/14 08:34:35;;;;;;;8.35;2.75;;;;;;;19.42;62.01;100591.62;1846166;76;21076;-80
2021/05/14 08:37:03;;;;;;;4.00;1.40;;;;;;;19.49;60.34;100595.28;1810904;78;21466;-76
2021/05/14 08:39:30;;;;;;;2.70;1.45;;;;;;;19.43;60.41;100593.77;1820809;78;21072;-76
2021/05/14 08:42:02;;;;;;;53.08;6.05;;;;;;;19.38;60.59;100591.58;1815617;78;21654;-77
2021/05/14 08:44:31;;;;;;;4.53;1.62;;;;;;;19.37;60.97;100592.55;1828686;76;21144;-75
2021/05/14 08:47:00;;;;;;;3.98;1.70;;;;;;;19.42;60.66;100597.38;1822417;76;21738;-80
2021/05/14 08:49:28;;;;;;;2.47;1.77;;;;;;;19.51;61.37;100597.24;1821014;76;21664;-75
2021/05/14 08:51:58;;;;;;;4.58;1.90;;;;;;;19.60;60.10;100591.98;1801717;76;21143;-73
2021/05/14 08:54:27;;;;;;;22.17;2.98;;;;;;;19.64;58.00;100590.20;1806334;77;21011;-76
2021/05/14 08:56:54;;;;;;;11.88;2.33;;;;;;;19.61;59.30;100589.70;1848781;76;21062;-82
2021/05/14 08:59:21;;;;;;;8.08;2.00;;;;;;;19.62;59.45;100584.28;1836751;76;21046;-76
2021/05/14 09:01:51;;;;;;;11.33;2.15;;;;;;;19.72;58.74;100587.58;1828806;76;20973;-77
2021/05/14 09:04:19;;;;;;;9.15;2.10;;;;;;;19.78;58.48;100583.00;1802662;79;20905;-76
2021/05/14 09:06:46;;;;;;;9.98;2.42;;;;;;;19.92;58.59;100579.71;1804365;79;20996;-76
2021/05/14 09:09:16;;;;;;;3.30;1.55;;;;;;;20.06;57.42;100588.30;1786363;79;21087;-79
2021/05/14 09:11:48;;;;;;;7.00;2.00;;;;;;;20.14;56.19;100576.92;1754278;77;20998;-78
2021/05/14 09:14:42;;;;;;;6.60;2.05;;;;;;;20.29;56.06;100581.09;1851457;76;20980;-75
2021/05/14 09:17:12;;;;;;;3.60;1.80;;;;;;;20.48;53.93;100582.06;1843124;76;20981;-76
2021/05/14 09:19:42;;;;;;;5.45;1.82;;;;;;;20.60;53.91;100576.77;1849720;76;21673;-73
2021/05/14 09:22:14;;;;;;;5.20;1.57;;;;;;;20.74;53.80;100585.28;1844124;77;21651;-77
2021/05/14 09:24:45;;;;;;;10.00;2.33;;;;;;;20.85;52.42;100582.80;1840673;77;21651;-75
2021/05/14 09:27:25;;;;;;;8.35;2.58;;;;;;;20.80;51.94;100584.64;1849874;77;20938;-73
2021/05/14 09:29:52;;;;;;;4.15;1.27;;;;;;;20.77;53.94;100582.30;1837250;76;21105;-75
2021/05/14 09:32:33;;;;;;;4.30;1.40;;;;;;;20.92;53.48;100579.32;1839160;76;21648;-77
2021/05/14 09:35:04;;;;;;;5.55;2.20;;;;;;;21.10;52.33;100587.86;1847948;76;21073;-75
2021/05/14 09:37:32;;;;;;;3.30;1.20;;;;;;;21.20;52.38;100585.50;1846854;77;22212;-74
2021/05/14 09:40:22;;;;;;;1.92;1.40;;;;;;;21.23;51.92;100584.66;1838513;76;20948;-79
2021/05/14 09:42:52;;;;;;;3.22;1.27;;;;;;;21.23;50.90;100591.76;1838911;77;21062;-76
2021/05/14 09:45:27;;;;;;;2.17;1.30;;;;;;;21.18;50.57;100583.55;1812206;77;21071;-81
2021/05/14 09:48:26;;;;;;;2.45;1.30;;;;;;;21.19;50.74;100590.48;1837245;77;21096;-71
2021/05/14 09:50:52;;;;;;;4.47;1.35;;;;;;;21.16;48.27;100579.74;1837761;77;21625;-72
2021/05/14 09:53:24;;;;;;;5.83;1.65;;;;;;;21.36;49.77;100582.80;1836437;77;20953;-74
2021/05/14 09:55:56;;;;;;;1.42;1.05;;;;;;;22.42;47.50;100587.20;1835317;77;21036;-74
2021/05/14 09:58:29;;;;;;;4.37;1.30;;;;;;;23.45;43.38;100565.55;1837992;77;21067;-75
2021/05/14 10:00:55;;;;;;;1.70;1.20;;;;;;;24.33;41.10;100567.03;1840412;77;21637;-76
2021/05/14 10:03:27;;;;;;;2.65;1.37;;;;;;;25.15;39.65;100569.29;1841990;76;21088;-79
2021/05/14 10:05:56;;;;;;;4.72;1.50;;;;;;;26.02;39.29;100578.14;1769993;80;20997;-75
2021/05/14 10:08:25;;;;;;;1.85;1.00;;;;;;;26.64;36.54;100568.95;1793064;79;21061;-72
2021/05/14 10:10:53;;;;;;;4.00;1.35;;;;;;;26.59;35.99;100575.39;1781443;79;21594;-72
2021/05/14 10:13:24;;;;;;;2.33;1.10;;;;;;;26.64;36.52;100576.93;1764498;79;21593;-83
2021/05/14 10:15:51;;;;;;;2.45;0.98;;;;;;;27.01;35.38;100564.26;1781704;79;21134;-76
2021/05/14 10:18:18;;;;;;;1.87;1.00;;;;;;;27.58;33.31;100577.24;1753331;79;21016;-75
2021/05/14 10:20:48;;;;;;;2.50;1.00;;;;;;;27.53;34.20;100564.58;1764700;80;21128;-81
2021/05/14 10:23:17;;;;;;;6.70;1.52;;;;;;;27.67;33.42;100569.29;1848717;76;22318;-79
2021/05/14 10:25:48;;;;;;;4.22;1.35;;;;;;;27.62;33.55;100570.45;1850785;76;21491;-78
2021/05/14 10:28:26;;;;;;;5.60;1.10;;;;;;;27.51;34.40;100566.61;1851976;76;21100;-79
2021/05/14 10:31:09;;;;;;;3.87;1.00;;;;;;;27.37;34.16;100570.88;1840194;76;21546;-80
2021/05/14 10:33:47;;;;;;;5.53;1.00;;;;;;;26.99;35.06;100576.16;1851785;76;20947;-80
2021/05/14 10:36:32;;;;;;;5.60;1.17;;;;;;;26.56;35.94;100575.30;1861758;76;21544;-77
2021/05/14 10:39:14;;;;;;;1.40;0.95;;;;;;;26.03;37.04;100573.66;1772523;80;21117;-77
2021/05/14 10:42:05;;;;;;;4.40;0.90;;;;;;;25.78;35.91;100583.52;1771530;79;21641;-79
2021/05/14 10:44:53;;;;;;;1.15;1.00;;;;;;;25.41;36.63;100587.17;1783089;79;20931;-78
2021/05/14 10:47:44;;;;;;;2.62;1.10;;;;;;;25.24;37.04;100578.22;1774180;79;21028;-76
2021/05/14 10:50:37;;;;;;;4.78;1.30;;;;;;;25.17;37.69;100573.41;1764507;80;21633;-77
2021/05/14 10:53:40;;;;;;;2.02;1.37;;;;;;;25.31;36.96;100590.20;1854040;76;21383;-76
2021/05/14 10:56:15;;;;;;;5.35;1.17;;;;;;;24.95;35.99;100577.69;1853930;76;21611;-79
2021/05/14 10:58:51;;;;;;;5.05;0.98;;;;;;;24.55;37.29;100577.41;1866786;76;21047;-74
2021/05/14 11:01:34;;;;;;;2.25;1.10;;;;;;;24.37;38.01;100574.92;1862981;76;21081;-75
2021/05/14 11:04:14;;;;;;;4.03;1.10;;;;;;;24.37;38.66;100581.05;1859263;76;21095;-75
2021/05/14 11:06:49;;;;;;;2.67;0.90;;;;;;;24.23;37.92;100565.53;1850174;76;21131;-75
2021/05/14 11:09:18;;;;;;;1.65;1.17;;;;;;;23.98;38.42;100575.38;1860689;76;21109;-75
2021/05/14 11:12:06;;;;;;;3.10;0.93;;;;;;;23.90;38.48;100567.03;1845804;76;21035;-74
2021/05/14 11:14:46;;;;;;;3.77;1.10;;;;;;;24.02;37.13;100575.31;1771984;80;21107;-69
2021/05/14 11:17:16;;;;;;;1.75;0.90;;;;;;;24.09;36.98;100572.23;1845367;76;21345;-73
2021/05/14 11:19:50;;;;;;;2.10;1.00;;;;;;;24.12;38.38;100572.67;1848332;76;21033;-72
2021/05/14 11:22:25;;;;;;;6.92;1.05;;;;;;;24.06;38.75;100565.45;1777140;80;21041;-77
2021/05/14 11:24:54;;;;;;;3.27;1.05;;;;;;;24.04;38.88;100566.66;1758385;79;21700;-76
2021/05/14 11:27:48;;;;;;;5.60;1.25;;;;;;;24.06;38.50;100562.80;1775702;79;21149;-75
2021/05/14 11:30:15;;;;;;;8.90;1.43;;;;;;;24.05;38.00;100557.20;1781462;79;21009;-77
2021/05/14 11:32:47;;;;;;;1.75;1.32;;;;;;;23.91;38.18;100570.51;1767198;80;21115;-75
2021/05/14 11:35:17;;;;;;;1.22;0.90;;;;;;;23.77;38.01;100566.11;1779582;79;21138;-75
2021/05/14 11:37:54;;;;;;;1.98;1.25;;;;;;;23.48;38.96;100563.88;1785578;80;21115;-75
2021/05/14 11:40:34;;;;;;;1.92;1.25;;;;;;;23.43;39.36;100568.06;1769371;80;21041;-75
2021/05/14 11:43:11;;;;;;;2.35;1.35;;;;;;;23.40;38.90;100567.12;1767288;80;21084;-80
2021/05/14 11:45:39;;;;;;;4.17;1.12;;;;;;;23.32;39.27;100564.56;1833429;76;21085;-77
2021/05/14 11:48:18;;;;;;;3.55;1.30;;;;;;;23.16;39.49;100557.66;1846848;76;21617;-80
2021/05/14 11:50:50;;;;;;;2.62;1.37;;;;;;;23.18;40.39;100557.78;1863924;76;22399;-76
2021/05/14 11:53:17;;;;;;;;;;;;;;;23.41;39.99;100549.73;1859083;76;21678;-80
2021/05/14 11:55:48;;;;;;;1.50;1.00;;;;;;;23.46;39.51;100562.39;1852861;76;20237;-78
2021/05/14 11:58:15;;;;;;;2.00;0.90;;;;;;;23.50;39.71;100561.02;1837787;76;21649;-77
2021/05/14 12:00:49;;;;;;;2.50;1.15;;;;;;;23.49;39.87;100563.34;1858413;76;20934;-76
2021/05/14 12:03:17;;;;;;;4.08;1.10;;;;;;;23.48;39.90;100565.70;1765695;80;21083;-72
2021/05/14 12:05:46;;;;;;;5.42;1.32;;;;;;;23.40;40.88;100564.47;1829883;77;21502;-75
2021/05/14 12:08:22;;;;;;;7.17;1.87;;;;;;;23.32;40.46;100557.94;1850534;76;21005;-74
2021/05/14 12:11:02;;;;;;;3.90;1.10;;;;;;;23.08;41.07;100555.09;1846080;76;21967;-75
2021/05/14 12:13:33;;;;;;;5.45;1.05;;;;;;;23.28;41.58;100554.02;1857487;76;23437;-77
2021/05/14 12:16:08;;;;;;;5.80;1.20;;;;;;;23.49;39.31;100542.98;1854407;76;21013;-75
2021/05/14 12:18:38;;;;;;;3.85;1.10;;;;;;;23.52;38.67;100541.78;1845902;76;21092;-77
2021/05/14 12:21:11;;;;;;;2.55;1.07;;;;;;;23.60;38.94;100561.05;1855012;76;21408;-74
2021/05/14 12:23:38;;;;;;;1.62;1.30;;;;;;;23.80;39.77;100552.48;1777428;80;21885;-74
2021/05/14 12:26:07;;;;;;;6.42;1.20;;;;;;;23.71;40.45;100555.23;1783815;79;20896;-77
2021/05/14 12:28:42;;;;;;;4.15;1.47;;;;;;;23.63;40.63;100561.17;1778951;79;21619;-74
2021/05/14 12:31:15;;;;;;;2.35;1.15;;;;;;;23.60;41.08;100566.84;1782270;79;21378;-74
2021/05/14 12:33:58;;;;;;;3.27;0.98;;;;;;;23.71;40.13;100560.53;1776927;80;20881;-78
2021/05/14 12:36:32;;;;;;;3.40;1.27;;;;;;;23.75;38.22;100561.48;1780151;79;21088;-72
2021/05/14 12:39:17;;;;;;;1.77;1.00;;;;;;;23.60;39.06;100562.37;1767912;80;20962;-74
2021/05/14 12:42:01;;;;;;;3.00;1.37;;;;;;;23.40;40.06;100563.97;1777111;79;20999;-74
2021/05/14 12:44:35;;;;;;;2.50;1.47;;;;;;;23.28;40.50;100560.14;1777303;79;20954;-78
2021/05/14 12:47:13;;;;;;;2.17;1.07;;;;;;;23.43;41.08;100562.77;1786711;80;20939;-75
2021/05/14 12:49:52;;;;;;;5.20;1.35;;;;;;;23.64;39.74;100560.17;1772193;79;20969;-77
2021/05/14 12:52:36;;;;;;;5.58;1.32;;;;;;;23.51;40.45;100566.65;1785508;79;20919;-73
2021/05/14 12:55:15;;;;;;;1.80;1.30;;;;;;;23.51;41.04;100566.65;1778398;79;20994;-73
2021/05/14 12:58:00;;;;;;;3.05;1.20;;;;;;;23.74;40.21;100563.84;1778999;79;21118;-75
2021/05/14 13:00:30;;;;;;;1.57;1.10;;;;;;;23.54;39.46;100555.67;1836252;77;20971;-73
2021/05/14 13:03:00;;;;;;;7.47;1.65;;;;;;;23.43;40.31;100550.85;1860523;76;21658;-72
2021/05/14 13:05:44;;;;;;;1.57;1.12;;;;;;;23.61;39.83;100560.02;1854031;76;21187;-72
2021/05/14 13:08:18;;;;;;;2.08;1.15;;;;;;;23.98;38.80;100552.34;1862896;76;21005;-77
2021/05/14 13:10:54;;;;;;;1.27;1.00;;;;;;;24.16;39.13;100554.55;1852755;77;20889;-79
2021/05/14 13:13:24;;;;;;;2.42;1.17;;;;;;;24.33;38.25;100545.81;1839654;76;21017;-73
2021/05/14 13:16:02;;;;;;;3.55;1.12;;;;;;;24.30;38.39;100554.98;1853140;76;21168;-77
2021/05/14 13:18:31;;;;;;;4.05;1.05;;;;;;;24.04;39.15;100557.38;1859092;76;20883;-81
2021/05/14 13:20:59;;;;;;;2.50;1.17;;;;;;;23.63;38.90;100561.17;1853631;76;20953;-69
2021/05/14 13:23:32;;;;;;;3.98;1.20;;;;;;;23.72;39.43;100554.73;1863669;76;20898;-74
2021/05/14 13:26:01;;;;;;;3.25;1.07;;;;;;;24.08;38.71;100544.89;1857614;76;21009;-76
2021/05/14 13:28:28;;;;;;;2.70;1.10;;;;;;;24.27;38.70;100558.52;1846092;76;21078;-80
2021/05/14 13:30:56;;;;;;;3.50;1.00;;;;;;;24.51;36.50;100548.79;1848169;76;20982;-76
2021/05/14 13:33:23;;;;;;;1.82;1.00;;;;;;;24.57;36.58;100561.31;1857654;76;21551;-71
2021/05/14 13:35:49;;;;;;;3.80;1.00;;;;;;;24.80;36.98;100561.84;1860875;76;21448;-75
2021/05/14 13:38:16;;;;;;;2.02;1.20;;;;;;;24.99;37.07;100554.52;1855715;76;21021;-75
2021/05/14 13:40:45;;;;;;;3.77;1.12;;;;;;;25.30;36.18;100565.17;1861919;76;21481;-79
2021/05/14 13:43:12;;;;;;;4.35;1.30;;;;;;;25.35;35.71;100574.18;1845509;76;21113;-77
2021/05/14 13:45:43;;;;;;;3.45;1.20;;;;;;;25.17;35.76;100563.29;1849424;76;20966;-76
2021/05/14 13:48:17;;;;;;;5.40;1.10;;;;;;;25.36;35.16;100564.38;1778568;80;20919;-76
2021/05/14 13:50:44;;;;;;;1.67;0.93;;;;;;;25.57;35.26;100557.61;1794587;79;21070;-75
2021/05/14 13:53:11;;;;;;;5.75;1.30;;;;;;;26.06;35.16;100554.12;1774881;80;21173;-79
2021/05/14 13:55:38;;;;;;;8.55;1.25;;;;;;;26.65;34.51;100551.42;1777048;79;21002;-74
2021/05/14 13:58:06;;;;;;;7.15;1.30;;;;;;;26.93;33.46;100555.16;1760603;80;20878;-82
2021/05/14 14:00:33;;;;;;;2.75;1.07;;;;;;;27.05;33.36;100561.48;1776266;79;21025;-77
2021/05/14 14:03:00;;;;;;;3.58;1.30;;;;;;;27.08;31.27;100557.58;1771319;79;21610;-80
2021/05/14 14:05:27;;;;;;;3.77;1.00;;;;;;;26.87;31.32;100556.53;1772813;80;21572;-76
2021/05/14 14:07:54;;;;;;;2.30;1.00;;;;;;;26.37;32.21;100566.00;1847153;76;20890;-72
2021/05/14 14:10:22;;;;;;;2.05;0.90;;;;;;;26.16;32.43;100567.87;1845898;76;20921;-73
2021/05/14 14:12:53;;;;;;;3.27;1.72;;;;;;;25.75;33.68;100573.83;1841424;76;20964;-77
2021/05/14 14:15:30;;;;;;;3.35;2.40;;;;;;;25.14;34.11;100575.10;1849895;76;21081;-73
2021/05/14 14:17:59;;;;;;;4.97;1.60;;;;;;;24.53;35.51;100570.66;1831467;76;20878;-73
2021/05/14 14:20:25;;;;;;;3.92;1.15;;;;;;;24.17;36.73;100574.27;1850291;76;20980;-72
2021/05/14 14:22:53;;;;;;;3.62;1.37;;;;;;;23.94;37.26;100573.60;1858854;76;21041;-78
2021/05/14 14:25:20;;;;;;;2.42;1.40;;;;;;;23.77;37.35;100578.86;1855438;76;21025;-78
2021/05/14 14:27:47;;;;;;;2.60;1.27;;;;;;;23.60;37.78;100580.92;1861195;76;20958;-77
2021/05/14 14:30:17;;;;;;;3.65;1.40;;;;;;;23.47;38.13;100587.39;1856959;76;21095;-72
2021/05/14 14:32:44;;;;;;;2.67;1.22;;;;;;;23.39;38.38;100578.18;1845696;76;20949;-76
2021/05/14 14:35:13;;;;;;;4.55;1.30;;;;;;;23.33;37.85;100581.57;1854681;76;21495;-75
2021/05/14 14:37:43;;;;;;;3.10;1.22;;;;;;;23.25;37.60;100582.19;1862572;76;20985;-81
2021/05/14 14:40:13;;;;;;;2.02;0.90;;;;;;;23.18;37.57;100582.93;1860611;76;21524;-75
2021/05/14 14:42:41;;;;;;;5.83;1.57;;;;;;;23.16;38.25;100579.66;1847739;76;21068;-76
2021/05/14 14:45:12;;;;;;;2.52;1.20;;;;;;;23.24;38.87;100576.06;1854396;76;21010;-76
2021/05/14 14:47:39;;;;;;;4.87;1.27;;;;;;;23.24;38.69;100576.06;1842451;76;21008;-73
2021/05/14 14:50:27;;;;;;;3.52;1.02;;;;;;;23.23;38.52;100573.63;1860743;76;20980;-73
2021/05/14 14:52:54;;;;;;;3.45;1.15;;;;;;;23.18;38.59;100572.34;1861281;76;21012;-70
2021/05/14 14:55:21;;;;;;;3.65;1.45;;;;;;;23.12;38.87;100574.41;1857911;76;21077;-75
2021/05/14 14:57:48;;;;;;;5.30;1.20;;;;;;;23.16;38.83;100566.42;1854951;76;20837;-76
2021/05/14 15:00:17;;;;;;;1.67;0.90;;;;;;;23.29;38.15;100572.37;1858632;76;21182;-73
2021/05/14 15:02:45;;;;;;;2.55;1.20;;;;;;;23.35;38.36;100566.84;1851223;76;21074;-73
2021/05/14 15:05:13;;;;;;;2.17;0.98;;;;;;;23.20;38.72;100570.81;1855081;76;21490;-73
2021/05/14 15:07:40;;;;;;;2.90;1.32;;;;;;;23.07;39.38;100571.47;1855495;76;21068;-79
2021/05/14 15:10:08;;;;;;;2.58;1.00;;;;;;;22.93;39.36;100568.84;1858406;76;20968;-76
2021/05/14 15:12:37;;;;;;;3.10;1.10;;;;;;;22.79;39.77;100571.80;1855149;76;21031;-73
2021/05/14 15:15:06;;;;;;;3.52;0.93;;;;;;;22.74;39.96;100564.92;1856382;76;22154;-72
2021/05/14 15:17:33;;;;;;;2.65;1.20;;;;;;;22.73;40.37;100563.77;1860242;76;21606;-71
2021/05/14 15:20:03;;;;;;;0.90;0.82;;;;;;;22.71;40.83;100560.00;1857086;76;21103;-73
2021/05/14 15:22:30;;;;;;;1.65;0.90;;;;;;;22.84;40.46;100556.22;1862693;76;20887;-75
2021/05/14 15:24:57;;;;;;;2.70;1.22;;;;;;;22.82;39.66;100566.14;1856666;76;21012;-75
2021/05/14 15:27:24;;;;;;;5.30;0.98;;;;;;;22.75;39.84;100568.40;1858053;76;21018;-79
2021/05/14 15:29:51;;;;;;;4.55;1.17;;;;;;;22.93;39.63;100571.00;1857022;76;21012;-75
2021/05/14 15:32:23;;;;;;;3.15;1.30;;;;;;;23.24;38.97;100560.68;1864131;76;21685;-74
2021/05/14 15:34:46;;;;;;;1.80;0.85;;;;;;;23.31;39.02;100565.06;1864270;76;21064;-77
2021/05/14 15:37:14;;;;;;;1.90;1.12;;;;;;;23.24;38.80;100560.68;1860159;76;20914;-78
2021/05/14 15:39:41;;;;;;;2.92;1.10;;;;;;;23.06;39.08;100572.50;1855609;76;21007;-76
2021/05/14 15:42:09;;;;;;;1.67;0.93;;;;;;;22.87;39.26;100569.08;1847305;77;20929;-78
2021/05/14 15:44:35;;;;;;;2.52;0.90;;;;;;;22.72;39.81;100572.20;1850782;76;21065;-74
2021/05/14 15:47:03;;;;;;;4.35;1.00;;;;;;;22.67;40.05;100570.62;1852496;76;20965;-74
2021/05/14 15:49:30;;;;;;;4.45;1.10;;;;;;;22.60;40.12;100563.88;1860159;76;20973;-79
2021/05/14 15:51:57;;;;;;;3.08;0.98;;;;;;;22.56;40.11;100566.55;1863564;76;20887;-73
2021/05/14 15:54:24;;;;;;;2.25;0.95;;;;;;;22.47;40.46;100572.10;1857394;77;21048;-72
2021/05/14 15:56:52;;;;;;;4.53;1.02;;;;;;;22.37;40.76;100581.61;1853006;76;21792;-73
2021/05/14 15:59:19;;;;;;;1.82;1.10;;;;;;;22.30;40.54;100578.06;1849198;76;20870;-75
2021/05/14 16:01:46;;;;;;;6.30;1.32;;;;;;;22.25;40.62;100593.63;1853497;76;20882;-78
2021/05/14 16:04:13;;;;;;;4.05;1.40;;;;;;;22.18;40.96;100592.69;1851877;76;21132;-80
2021/05/14 16:06:41;;;;;;;2.77;0.90;;;;;;;22.17;40.75;100600.81;1858054;76;20980;-77
2021/05/14 16:09:08;;;;;;;0.95;0.82;;;;;;;22.12;41.04;100589.43;1854502;76;21074;-77
2021/05/14 16:11:35;;;;;;;1.60;0.80;;;;;;;22.09;41.26;100589.78;1847537;77;21641;-75
2021/05/14 16:14:04;;;;;;;5.17;1.30;;;;;;;22.09;41.22;100601.68;1858565;77;21018;-77
2021/05/14 16:16:37;;;;;;;5.17;2.17;;;;;;;22.03;41.11;100605.86;1861366;76;21562;-81
2021/05/14 16:19:05;;;;;;;4.35;1.07;;;;;;;21.97;41.59;100597.31;1778423;80;21543;-74